Terminal Aerodrome Forecast
Issued by NWS Birmingham, AL

Home | Current Version | Previous Version | Text Only | Print | Product List | Glossary On
Versions: 1 2 3 4 5 6 7 8 9 10 11 12 13 14 15 16
000
FTUS44 KBMX 191700
TAFBHM
TAF
KBHM 191730Z 1918/2018 11007KT P6SM VCTS SCT060CB
     FM200100 09003KT P6SM FEW250
     FM201100 10006KT P6SM SCT035=

USA.gov is the U.S. government's official web portal to all federal, state and local government web resources and services.